createdAt,value
2023-04-25T00:01:57.728Z,18.75
2023-04-25T00:06:03.352Z,18.58
2023-04-25T00:10:06.755Z,20.85
2023-04-25T00:14:08.802Z,19.38
2023-04-25T00:18:12.175Z,18.65
2023-04-25T00:22:14.460Z,19.83
2023-04-25T00:26:16.599Z,18.38
2023-04-25T00:30:18.669Z,19.10
2023-04-25T00:34:21.211Z,21.27
2023-04-25T00:38:23.318Z,21.00
2023-04-25T00:42:26.325Z,22.45
2023-04-25T00:46:28.363Z,23.38
2023-04-25T00:50:30.725Z,24.00
2023-04-25T00:54:33.001Z,21.88
2023-04-25T00:58:35.666Z,21.92
2023-04-25T01:02:38.821Z,22.42
2023-04-25T01:06:41.862Z,24.23
2023-04-25T01:10:43.592Z,23.10
2023-04-25T01:14:45.829Z,23.02
2023-04-25T01:18:48.266Z,23.60
2023-04-25T01:22:51.964Z,21.17
2023-04-25T01:26:57.279Z,24.83
2023-04-25T01:31:00.762Z,24.05
2023-04-25T01:35:03.585Z,23.67
2023-04-25T01:39:05.957Z,25.17
2023-04-25T01:43:11.986Z,24.15
2023-04-25T01:47:14.141Z,24.60
2023-04-25T01:51:16.624Z,25.63
2023-04-25T01:55:18.863Z,24.95
2023-04-25T01:59:37.432Z,25.30
2023-04-25T02:04:02.667Z,27.60
2023-04-25T02:08:10.261Z,26.33
2023-04-25T02:12:12.999Z,26.17
2023-04-25T02:16:36.828Z,26.65
2023-04-25T02:20:39.184Z,32.70
2023-04-25T02:24:41.222Z,31.75
2023-04-25T02:28:43.463Z,34.47
2023-04-25T02:32:45.833Z,30.67
2023-04-25T02:36:49.448Z,33.10
2023-04-25T02:40:53.624Z,30.60
2023-04-25T02:44:55.844Z,29.85
2023-04-25T02:48:57.855Z,29.00
2023-04-25T02:53:00.051Z,30.83
2023-04-25T02:57:08.603Z,29.13
2023-04-25T03:01:12.685Z,29.98
2023-04-25T03:05:15.008Z,27.42
2023-04-25T03:09:17.846Z,26.65
2023-04-25T03:13:19.867Z,26.95
2023-04-25T03:17:22.375Z,25.90
2023-04-25T03:21:26.116Z,26.45
2023-04-25T03:25:28.076Z,26.13
2023-04-25T03:29:30.179Z,23.95
2023-04-25T03:33:33.788Z,23.48
2023-04-25T03:37:35.932Z,21.35
2023-04-25T03:41:38.602Z,20.70
2023-04-25T03:45:46.959Z,19.98
2023-04-25T03:49:52.743Z,19.35
2023-04-25T03:53:57.894Z,18.85
2023-04-25T03:58:05.995Z,19.00
2023-04-25T04:02:08.155Z,18.08
2023-04-25T04:06:11.827Z,18.20
2023-04-25T04:10:21.027Z,17.25
2023-04-25T04:14:23.158Z,16.33
2023-04-25T04:18:26.356Z,16.70
2023-04-25T04:22:29.257Z,16.50
2023-04-25T04:26:36.128Z,16.63
2023-04-25T04:30:58.774Z,16.48
2023-04-25T04:35:01.819Z,15.35
2023-04-25T04:39:04.655Z,15.93
2023-04-25T04:43:27.004Z,16.27
2023-04-25T04:47:44.013Z,15.48
2023-04-25T04:52:08.711Z,16.75
2023-04-25T04:56:29.217Z,16.00
2023-04-25T05:00:54.338Z,14.20
2023-04-25T05:05:09.365Z,12.95
2023-04-25T05:09:31.692Z,12.70
2023-04-25T05:14:00.219Z,13.27
2023-04-25T05:18:23.776Z,12.82
2023-04-25T05:22:44.795Z,13.30
2023-04-25T05:26:57.005Z,12.27
2023-04-25T05:31:12.001Z,12.18
2023-04-25T05:35:22.207Z,13.60
2023-04-25T05:39:26.277Z,12.77
2023-04-25T05:43:50.923Z,14.00
2023-04-25T05:48:16.186Z,14.15
2023-04-25T05:52:33.850Z,14.13
2023-04-25T05:56:43.804Z,13.60
2023-04-25T06:00:47.007Z,12.70
2023-04-25T06:04:51.057Z,13.45
2023-04-25T06:08:53.338Z,12.88
2023-04-25T06:12:55.358Z,12.45
2023-04-25T06:16:58.816Z,12.63
2023-04-25T06:21:02.548Z,12.60
2023-04-25T06:25:05.426Z,13.38
2023-04-25T06:29:08.659Z,13.70
2023-04-25T06:33:11.229Z,14.93
2023-04-25T06:37:15.105Z,14.25
2023-04-25T06:41:17.625Z,18.05
2023-04-25T06:45:19.828Z,20.80
2023-04-25T06:49:21.936Z,22.23
2023-04-25T06:53:23.970Z,21.08
2023-04-25T06:57:32.125Z,26.43
2023-04-25T07:01:46.522Z,26.13
2023-04-25T07:06:00.140Z,19.98
2023-04-25T07:10:02.468Z,19.55
2023-04-25T07:14:04.849Z,16.67
2023-04-25T07:18:07.117Z,17.08
2023-04-25T07:22:09.384Z,17.92
2023-04-25T07:26:14.604Z,18.05
2023-04-25T07:30:36.125Z,19.27
2023-04-25T07:34:40.356Z,15.80
2023-04-25T07:38:42.652Z,16.77
2023-04-25T07:42:44.860Z,16.77
2023-04-25T07:46:49.255Z,17.17
2023-04-25T07:50:51.549Z,16.48
2023-04-25T07:54:53.578Z,16.33
2023-04-25T07:59:02.781Z,16.23
2023-04-25T08:03:06.045Z,13.50
2023-04-25T08:07:08.719Z,13.70
2023-04-25T08:11:17.932Z,15.52
2023-04-25T08:15:20.168Z,15.23
2023-04-25T08:19:23.063Z,13.23
2023-04-25T08:23:25.371Z,13.88
2023-04-25T08:27:32.710Z,15.15
2023-04-25T08:31:35.140Z,14.63
2023-04-25T08:35:39.303Z,15.27
2023-04-25T08:39:43.097Z,16.65
2023-04-25T08:44:05.431Z,16.60
2023-04-25T08:48:13.446Z,16.55
2023-04-25T08:52:17.771Z,15.27
2023-04-25T08:56:23.347Z,14.13
2023-04-25T09:00:25.676Z,14.27
2023-04-25T09:04:27.731Z,13.45
2023-04-25T09:08:31.198Z,14.57
2023-04-25T09:12:33.716Z,12.60
2023-04-25T09:16:38.238Z,12.25
2023-04-25T09:21:01.914Z,11.63
2023-04-25T09:25:13.379Z,12.48
2023-04-25T09:29:17.404Z,13.43
2023-04-25T09:33:19.994Z,16.20
2023-04-25T09:37:27.350Z,14.15
2023-04-25T09:41:42.214Z,14.52
2023-04-25T09:45:46.774Z,11.50
2023-04-25T09:49:51.180Z,14.20
2023-04-25T09:53:54.972Z,14.88
2023-04-25T09:58:10.131Z,17.65
2023-04-25T10:02:13.529Z,15.18
2023-04-25T10:06:20.657Z,19.48
2023-04-25T10:10:29.248Z,18.50
2023-04-25T10:14:33.160Z,19.75
2023-04-25T10:18:35.437Z,18.67
2023-04-25T10:22:45.103Z,20.13
2023-04-25T10:26:49.002Z,21.50
2023-04-25T10:31:02.611Z,19.98
2023-04-25T10:35:26.663Z,21.75
2023-04-25T10:39:28.787Z,24.48
2023-04-25T10:43:47.126Z,20.23
2023-04-25T10:47:49.372Z,23.13
2023-04-25T10:51:54.880Z,22.83
2023-04-25T10:55:57.625Z,24.30
2023-04-25T11:00:21.755Z,24.20
2023-04-25T11:04:32.946Z,22.90
2023-04-25T11:08:52.150Z,26.33
2023-04-25T11:17:00.402Z,25.55
2023-04-25T11:21:03.981Z,25.83
2023-04-25T11:25:07.897Z,23.17
2023-04-25T11:29:10.080Z,21.17
2023-04-25T11:33:12.216Z,18.73
2023-04-25T11:37:14.969Z,20.00
2023-04-25T11:41:17.202Z,15.25
2023-04-25T11:45:19.767Z,16.10
2023-04-25T11:49:23.131Z,15.32
2023-04-25T11:53:25.889Z,14.60
2023-04-25T11:57:27.943Z,14.23
2023-04-25T12:01:35.549Z,12.60
2023-04-25T12:05:38.942Z,12.50
2023-04-25T12:09:42.503Z,13.07
2023-04-25T12:13:45.023Z,12.00
2023-04-25T12:17:52.480Z,12.90
2023-04-25T12:21:58.506Z,12.13
2023-04-25T12:26:04.122Z,12.38
2023-04-25T12:30:08.125Z,12.45
2023-04-25T12:34:10.243Z,11.88
2023-04-25T12:38:12.464Z,12.80
2023-04-25T12:42:14.494Z,14.10
2023-04-25T12:46:16.562Z,11.02
2023-04-25T12:50:18.290Z,11.68
2023-04-25T12:54:20.725Z,12.57
2023-04-25T12:58:22.918Z,12.23
2023-04-25T13:02:25.102Z,11.38
2023-04-25T13:06:27.511Z,10.07
2023-04-25T13:10:29.885Z,9.77
2023-04-25T13:14:31.916Z,8.55
2023-04-25T13:18:34.440Z,6.40
2023-04-25T13:22:38.669Z,6.57
2023-04-25T13:26:41.034Z,5.55
2023-04-25T13:30:43.663Z,6.20
2023-04-25T13:34:46.258Z,4.95
2023-04-25T13:38:50.118Z,5.32
2023-04-25T13:42:52.308Z,4.07
2023-04-25T13:46:54.448Z,5.03
2023-04-25T13:50:56.470Z,5.10
2023-04-25T13:54:59.219Z,4.57
2023-04-25T13:59:01.818Z,3.53
2023-04-25T14:03:06.050Z,2.80
2023-04-25T14:07:08.179Z,3.25
2023-04-25T14:11:10.343Z,4.00
2023-04-25T14:15:12.392Z,3.90
2023-04-25T14:19:14.569Z,4.88
2023-04-25T14:23:18.479Z,7.15
2023-04-25T14:27:20.614Z,6.50
2023-04-25T14:31:23.315Z,7.75
2023-04-25T14:35:25.580Z,7.20
2023-04-25T14:39:27.616Z,8.75
2023-04-25T14:43:29.693Z,8.77
2023-04-25T14:47:32.813Z,8.07
2023-04-25T14:51:34.889Z,7.30
2023-04-25T14:55:37.080Z,9.90
2023-04-25T14:59:39.696Z,8.95
2023-04-25T15:03:42.723Z,10.30
2023-04-25T15:07:45.301Z,9.45
2023-04-25T15:11:47.464Z,11.43
2023-04-25T15:15:52.221Z,21.08
2023-04-25T15:19:55.623Z,27.50
2023-04-25T15:23:58.006Z,20.65
2023-04-25T15:28:01.004Z,14.25
2023-04-25T15:32:03.084Z,14.05
2023-04-25T15:36:06.112Z,14.13
2023-04-25T15:40:11.886Z,12.95
2023-04-25T15:44:13.906Z,15.52
2023-04-25T15:48:16.260Z,12.95
2023-04-25T15:52:21.836Z,12.52
2023-04-25T15:56:24.209Z,13.13
2023-04-25T16:00:26.501Z,14.80
2023-04-25T16:04:35.286Z,14.35
2023-04-25T16:08:37.406Z,12.88
2023-04-25T16:12:40.937Z,14.88
2023-04-25T16:16:44.799Z,13.60
2023-04-25T16:20:46.811Z,13.60
2023-04-25T16:24:49.018Z,13.23
2023-04-25T16:28:51.035Z,12.45
2023-04-25T16:32:53.223Z,12.70
2023-04-25T16:36:56.371Z,14.13
2023-04-25T16:40:58.538Z,10.50
2023-04-25T16:45:00.547Z,10.90
2023-04-25T16:49:02.740Z,11.60
2023-04-25T16:53:05.037Z,12.85
2023-04-25T16:57:10.465Z,13.50
2023-04-25T17:01:16.103Z,12.07
2023-04-25T17:05:18.845Z,12.55
2023-04-25T17:09:21.422Z,12.73
2023-04-25T17:13:30.867Z,13.43
2023-04-25T17:17:33.569Z,14.65
2023-04-25T17:21:35.758Z,14.88
2023-04-25T17:25:37.761Z,14.90
2023-04-25T17:29:39.928Z,15.40
2023-04-25T17:33:42.192Z,19.92
2023-04-25T17:37:45.377Z,18.45
2023-04-25T17:41:47.442Z,18.65
2023-04-25T17:45:49.580Z,16.70
2023-04-25T17:49:51.714Z,16.90
2023-04-25T17:53:53.801Z,17.13
2023-04-25T17:57:56.470Z,15.98
2023-04-25T18:02:00.013Z,15.93
2023-04-25T18:06:02.148Z,16.60
2023-04-25T18:10:08.771Z,18.02
2023-04-25T18:14:14.534Z,18.23
2023-04-25T18:18:20.387Z,18.20
2023-04-25T18:22:23.260Z,17.30
2023-04-25T18:26:25.393Z,16.77
2023-04-25T18:30:27.586Z,16.88
2023-04-25T18:34:29.940Z,18.17
2023-04-25T18:38:49.678Z,20.40
2023-04-25T18:42:51.783Z,21.67
2023-04-25T18:46:53.752Z,19.10
2023-04-25T18:50:56.128Z,19.15
2023-04-25T18:54:58.212Z,18.67
2023-04-25T18:59:00.501Z,17.90
2023-04-25T19:03:04.485Z,18.80
2023-04-25T19:07:06.796Z,18.25
2023-04-25T19:11:20.637Z,19.20
2023-04-25T19:15:23.087Z,20.77
2023-04-25T19:19:25.535Z,20.23
2023-04-25T19:23:27.734Z,21.40
2023-04-25T19:27:29.716Z,19.85
2023-04-25T19:31:33.440Z,20.38
2023-04-25T19:35:35.523Z,21.30
2023-04-25T19:39:37.885Z,22.10
2023-04-25T19:43:39.546Z,22.27
2023-04-25T19:47:42.716Z,21.52
2023-04-25T19:51:45.552Z,24.08
2023-04-25T19:55:47.882Z,20.85
2023-04-25T19:59:50.116Z,23.05
2023-04-25T20:03:52.353Z,21.80
2023-04-25T20:07:54.743Z,23.50
2023-04-25T20:11:56.922Z,21.60
2023-04-25T20:16:00.658Z,22.17
2023-04-25T20:20:06.530Z,22.42
2023-04-25T20:24:08.748Z,20.30
2023-04-25T20:28:10.701Z,21.73
2023-04-25T20:32:12.950Z,22.23
2023-04-25T20:36:15.646Z,24.10
2023-04-25T20:40:17.684Z,20.75
2023-04-25T20:44:22.686Z,23.42
2023-04-25T20:48:24.801Z,25.75
2023-04-25T20:52:26.872Z,23.48
2023-04-25T20:56:29.355Z,25.85
2023-04-25T21:00:31.485Z,23.92
2023-04-25T21:04:33.534Z,23.83
2023-04-25T21:08:35.607Z,25.33
2023-04-25T21:12:37.798Z,24.40
2023-04-25T21:16:40.886Z,24.17
2023-04-25T21:20:43.033Z,21.58
2023-04-25T21:24:45.359Z,21.13
2023-04-25T21:28:47.548Z,20.02
2023-04-25T21:32:51.361Z,20.05
2023-04-25T21:36:53.504Z,18.30
2023-04-25T21:40:55.546Z,19.05
2023-04-25T21:44:57.612Z,22.35
2023-04-25T21:48:59.778Z,19.73
2023-04-25T21:53:01.848Z,25.38
2023-04-25T21:57:03.866Z,23.90
2023-04-25T22:01:05.946Z,26.13
2023-04-25T22:05:08.981Z,29.40
2023-04-25T22:09:11.259Z,28.83
2023-04-25T22:13:15.029Z,26.67
2023-04-25T22:17:17.786Z,29.63
2023-04-25T22:21:20.373Z,27.20
2023-04-25T22:25:22.350Z,27.00
2023-04-25T22:29:24.427Z,26.27
2023-04-25T22:33:26.506Z,25.20
2023-04-25T22:37:28.978Z,21.83
2023-04-25T22:41:31.167Z,20.75
2023-04-25T22:45:34.482Z,16.83
2023-04-25T22:49:36.535Z,12.82
2023-04-25T22:53:41.343Z,12.30
2023-04-25T22:57:43.471Z,10.15
2023-04-25T23:01:45.544Z,10.00
2023-04-25T23:05:47.891Z,9.73
2023-04-25T23:09:50.128Z,10.18
2023-04-25T23:13:52.238Z,10.15
2023-04-25T23:17:54.363Z,10.13
2023-04-25T23:21:56.446Z,11.00
2023-04-25T23:25:58.427Z,10.40
2023-04-25T23:30:00.551Z,10.05
2023-04-25T23:34:02.806Z,10.23
2023-04-25T23:38:04.896Z,10.60
2023-04-25T23:42:06.611Z,11.85
2023-04-25T23:46:09.502Z,11.25
2023-04-25T23:50:11.893Z,13.77
2023-04-25T23:54:15.302Z,14.98
2023-04-25T23:58:17.376Z,15.57
